Nearby METAR Reports


NZWN - Wellington Intl, New Zealand
Distance from station: SSW 357km
Updated: 20/10/2017 06:30
Clear
Clear
 Wind from NNE
Wind: NNE 17 km/h
Temperature: 10°C
Wind Chill: 8°C
Dew Point: 9°C
Humidity: 94%
Barometer: 1021 hPa
Clouds: Clear
Visibility: 10 km
2017/10/19 17:30 NZWN 191730Z AUTO 02009KT 9999 NCD 10/09 Q1021 NOSIG
NZAA - Auckland Intl Ar, New Zealand
Distance from station: NW 162km
Updated: 20/10/2017 06:30
Overcast
Overcast
 Wind from SW
Wind: SW 19 km/h
Temperature: 14°C
Dew Point: 11°C
Humidity: 82%
Barometer: 1020 hPa
Clouds: Overcast
Visibility: 10 km
Cloud details: Overcast 579 m
2017/10/19 17:30 NZAA 191730Z AUTO 22010KT 9999 OVC019/// 14/11 Q1020 NOSIG
 
NZCH - Christchurch Int, New Zealand
Distance from station: SSW 647km
Updated: 20/10/2017 06:30
Patches of fog, Mostly cloudy
Patches of fog, Mostly cloudy
 Wind from NNE
Wind: NNE 6 km/h
Temperature: 6°C
Dew Point: 6°C
Humidity: 100%
Barometer: 1021 hPa
Summary: Patches of Fog
Clouds: Mostly Cloudy
Visibility: 2 km
Cloud details: Mostly Cloudy 183 m
2017/10/19 17:30 NZCH 191730Z AUTO 03003KT 1800 R02/1100D R20/1300U BCFG BKN006/// 06/06 Q1021 BECMG 9999 NSW NSC
YSNF - Norfolk Island A, Australia
Distance from station: NW 1258km
Updated: 20/10/2017 06:30
Mostly Cloudy
Mostly Cloudy
 Wind from ESE
Wind: ESE 13 km/h
Temperature: 16°C
Dew Point: 12°C
Humidity: 77%
Barometer: 1022 hPa
Clouds: Mostly Cloudy
Visibility: 10 km
Cloud details: Partly Cloudy 671 m
Mostly Cloudy 823 m
2017/10/19 17:30 YSNF 191730Z AUTO 11007KT 9999 // SCT022 BKN027 16/12 Q1022